sensor_id;sensor_type;location;lat;lon;timestamp;pressure;altitude;pressure_sealevel;temperature;humidity
53659;BME280;41524;35.624;139.698;2023-02-20T00:00:18;100889.00;;;10.94;29.31
53659;BME280;41524;35.624;139.698;2023-02-20T00:05:13;100888.00;;;10.92;27.20
53659;BME280;41524;35.624;139.698;2023-02-20T00:10:12;100892.00;;;11.33;28.04
53659;BME280;41524;35.624;139.698;2023-02-20T00:15:14;100898.00;;;11.32;26.23
53659;BME280;41524;35.624;139.698;2023-02-20T00:20:12;100904.00;;;11.94;27.51
53659;BME280;41524;35.624;139.698;2023-02-20T00:25:15;100896.00;;;12.39;25.99
53659;BME280;41524;35.624;139.698;2023-02-20T00:30:23;100893.00;;;13.04;26.45
53659;BME280;41524;35.624;139.698;2023-02-20T00:35:12;100886.00;;;11.40;28.04
53659;BME280;41524;35.624;139.698;2023-02-20T00:40:19;100906.00;;;12.83;25.30
53659;BME280;41524;35.624;139.698;2023-02-20T00:45:10;100890.00;;;11.84;25.84
53659;BME280;41524;35.624;139.698;2023-02-20T00:50:13;100879.00;;;12.99;24.63
53659;BME280;41524;35.624;139.698;2023-02-20T00:55:17;100885.00;;;11.51;25.48
53659;BME280;41524;35.624;139.698;2023-02-20T01:00:20;100891.00;;;11.85;24.99
53659;BME280;41524;35.624;139.698;2023-02-20T01:05:11;100869.00;;;12.63;24.66
53659;BME280;41524;35.624;139.698;2023-02-20T01:10:16;100865.00;;;13.69;24.56
53659;BME280;41524;35.624;139.698;2023-02-20T01:15:17;100866.00;;;11.46;25.48
53659;BME280;41524;35.624;139.698;2023-02-20T01:20:16;100868.00;;;12.99;24.19
53659;BME280;41524;35.624;139.698;2023-02-20T01:25:11;100871.00;;;12.11;25.13
53659;BME280;41524;35.624;139.698;2023-02-20T01:30:12;100871.00;;;11.87;24.66
53659;BME280;41524;35.624;139.698;2023-02-20T01:35:10;100877.00;;;12.45;24.67
53659;BME280;41524;35.624;139.698;2023-02-20T01:40:15;100865.00;;;12.15;24.20
53659;BME280;41524;35.624;139.698;2023-02-20T01:45:30;100867.00;;;12.38;23.71
53659;BME280;41524;35.624;139.698;2023-02-20T01:50:13;100862.00;;;12.76;23.81
53659;BME280;41524;35.624;139.698;2023-02-20T01:55:19;100853.00;;;10.83;25.02
53659;BME280;41524;35.624;139.698;2023-02-20T02:00:16;100846.00;;;12.91;23.38
53659;BME280;41524;35.624;139.698;2023-02-20T02:05:12;100854.00;;;14.42;22.35
53659;BME280;41524;35.624;139.698;2023-02-20T02:10:13;100849.00;;;15.45;21.95
53659;BME280;41524;35.624;139.698;2023-02-20T02:15:15;100852.00;;;13.50;21.92
53659;BME280;41524;35.624;139.698;2023-02-20T02:20:40;100840.00;;;14.22;21.82
53659;BME280;41524;35.624;139.698;2023-02-20T02:25:28;100833.00;;;13.06;22.33
53659;BME280;41524;35.624;139.698;2023-02-20T02:35:28;100820.00;;;13.22;23.21
53659;BME280;41524;35.624;139.698;2023-02-20T02:40:27;100806.00;;;12.43;23.86
53659;BME280;41524;35.624;139.698;2023-02-20T02:45:15;100795.00;;;14.77;22.07
53659;BME280;41524;35.624;139.698;2023-02-20T02:50:20;100780.00;;;15.02;21.38
53659;BME280;41524;35.624;139.698;2023-02-20T02:55:19;100774.00;;;14.07;22.04
53659;BME280;41524;35.624;139.698;2023-02-20T03:00:21;100756.00;;;12.79;23.24
53659;BME280;41524;35.624;139.698;2023-02-20T03:05:14;100749.00;;;13.53;22.80
53659;BME280;41524;35.624;139.698;2023-02-20T03:10:14;100730.00;;;13.59;22.16
53659;BME280;41524;35.624;139.698;2023-02-20T03:15:13;100722.00;;;14.55;22.32
53659;BME280;41524;35.624;139.698;2023-02-20T03:20:18;100713.00;;;13.74;22.92
53659;BME280;41524;35.624;139.698;2023-02-20T03:25:14;100698.00;;;14.80;22.38
53659;BME280;41524;35.624;139.698;2023-02-20T03:30:21;100689.00;;;14.75;22.18
53659;BME280;41524;35.624;139.698;2023-02-20T03:35:12;100679.00;;;16.12;21.25
53659;BME280;41524;35.624;139.698;2023-02-20T03:40:16;100665.00;;;15.42;20.87
53659;BME280;41524;35.624;139.698;2023-02-20T03:45:12;100655.00;;;16.23;20.51
53659;BME280;41524;35.624;139.698;2023-02-20T03:50:12;100660.00;;;13.81;22.06
53659;BME280;41524;35.624;139.698;2023-02-20T03:55:11;100644.00;;;13.30;22.71
53659;BME280;41524;35.624;139.698;2023-02-20T04:00:14;100645.00;;;15.92;21.36
53659;BME280;41524;35.624;139.698;2023-02-20T04:05:13;100638.00;;;14.20;21.57
53659;BME280;41524;35.624;139.698;2023-02-20T04:10:16;100630.00;;;15.68;20.83
53659;BME280;41524;35.624;139.698;2023-02-20T04:15:11;100612.00;;;13.66;21.77
53659;BME280;41524;35.624;139.698;2023-02-20T04:20:13;100616.00;;;15.11;21.24
53659;BME280;41524;35.624;139.698;2023-02-20T04:25:15;100615.00;;;13.40;22.03
53659;BME280;41524;35.624;139.698;2023-02-20T04:30:21;100618.00;;;14.90;21.59
53659;BME280;41524;35.624;139.698;2023-02-20T04:35:16;100613.00;;;13.62;22.56
53659;BME280;41524;35.624;139.698;2023-02-20T04:40:14;100616.00;;;13.36;22.82
53659;BME280;41524;35.624;139.698;2023-02-20T04:45:12;100615.00;;;13.64;23.30
53659;BME280;41524;35.624;139.698;2023-02-20T04:50:18;100625.00;;;12.77;23.15
53659;BME280;41524;35.624;139.698;2023-02-20T04:55:17;100626.00;;;13.35;22.78
53659;BME280;41524;35.624;139.698;2023-02-20T05:00:17;100619.00;;;13.07;23.48
53659;BME280;41524;35.624;139.698;2023-02-20T05:05:18;100618.00;;;13.28;23.39
53659;BME280;41524;35.624;139.698;2023-02-20T05:10:14;100595.00;;;15.23;22.23
53659;BME280;41524;35.624;139.698;2023-02-20T05:15:11;100598.00;;;13.62;23.77
53659;BME280;41524;35.624;139.698;2023-02-20T05:20:12;100617.00;;;14.90;22.61
53659;BME280;41524;35.624;139.698;2023-02-20T05:25:12;100626.00;;;13.92;24.69
53659;BME280;41524;35.624;139.698;2023-02-20T05:30:11;100634.00;;;14.46;25.01
53659;BME280;41524;35.624;139.698;2023-02-20T05:35:15;100610.00;;;13.88;25.61
53659;BME280;41524;35.624;139.698;2023-02-20T05:40:11;100605.00;;;14.10;24.18
53659;BME280;41524;35.624;139.698;2023-02-20T05:45:13;100626.00;;;12.17;26.01
53659;BME280;41524;35.624;139.698;2023-02-20T05:50:10;100631.00;;;12.73;26.31
53659;BME280;41524;35.624;139.698;2023-02-20T05:55:11;100616.00;;;13.72;25.43
53659;BME280;41524;35.624;139.698;2023-02-20T06:00:12;100617.00;;;13.35;25.36
53659;BME280;41524;35.624;139.698;2023-02-20T06:05:16;100612.00;;;13.36;25.40
53659;BME280;41524;35.624;139.698;2023-02-20T06:10:17;100625.00;;;12.57;25.67
53659;BME280;41524;35.624;139.698;2023-02-20T06:15:22;100609.00;;;12.78;25.65
53659;BME280;41524;35.624;139.698;2023-02-20T06:20:15;100614.00;;;13.15;25.25
53659;BME280;41524;35.624;139.698;2023-02-20T06:25:15;100610.00;;;13.55;25.31
53659;BME280;41524;35.624;139.698;2023-02-20T06:30:12;100612.00;;;12.54;25.69
53659;BME280;41524;35.624;139.698;2023-02-20T06:35:15;100606.00;;;13.36;24.95
53659;BME280;41524;35.624;139.698;2023-02-20T06:40:11;100616.00;;;13.49;25.51
53659;BME280;41524;35.624;139.698;2023-02-20T06:45:17;100608.00;;;13.59;25.38
53659;BME280;41524;35.624;139.698;2023-02-20T06:50:12;100607.00;;;15.76;23.90
53659;BME280;41524;35.624;139.698;2023-02-20T06:55:17;100604.00;;;18.32;21.85
53659;BME280;41524;35.624;139.698;2023-02-20T07:00:12;100607.00;;;17.54;21.58
53659;BME280;41524;35.624;139.698;2023-02-20T07:05:11;100615.00;;;16.46;22.92
53659;BME280;41524;35.624;139.698;2023-02-20T07:10:12;100622.00;;;14.85;24.06
53659;BME280;41524;35.624;139.698;2023-02-20T07:15:12;100608.00;;;16.35;22.89
53659;BME280;41524;35.624;139.698;2023-02-20T07:20:16;100607.00;;;14.86;24.04
53659;BME280;41524;35.624;139.698;2023-02-20T07:25:12;100611.00;;;13.04;26.17
53659;BME280;41524;35.624;139.698;2023-02-20T07:30:13;100612.00;;;11.78;28.20
53659;BME280;41524;35.624;139.698;2023-02-20T07:35:16;100616.00;;;12.48;28.05
53659;BME280;41524;35.624;139.698;2023-02-20T07:40:12;100626.00;;;12.02;28.42
53659;BME280;41524;35.624;139.698;2023-02-20T07:45:15;100626.00;;;11.63;28.91
53659;BME280;41524;35.624;139.698;2023-02-20T07:50:12;100615.00;;;9.25;31.94
53659;BME280;41524;35.624;139.698;2023-02-20T07:55:16;100612.00;;;11.97;28.81
53659;BME280;41524;35.624;139.698;2023-02-20T08:00:23;100617.00;;;11.97;29.02
53659;BME280;41524;35.624;139.698;2023-02-20T08:05:11;100627.00;;;11.30;28.43
53659;BME280;41524;35.624;139.698;2023-02-20T08:10:29;100640.00;;;10.14;29.33
53659;BME280;41524;35.624;139.698;2023-02-20T08:15:23;100663.00;;;9.68;30.11
53659;BME280;41524;35.624;139.698;2023-02-20T08:20:18;100668.00;;;9.80;31.77
53659;BME280;41524;35.624;139.698;2023-02-20T08:25:16;100674.00;;;10.08;35.21
53659;BME280;41524;35.624;139.698;2023-02-20T08:30:19;100678.00;;;9.95;37.51
53659;BME280;41524;35.624;139.698;2023-02-20T08:35:11;100697.00;;;9.72;37.91
53659;BME280;41524;35.624;139.698;2023-02-20T08:40:21;100698.00;;;9.34;39.25
53659;BME280;41524;35.624;139.698;2023-02-20T08:45:15;100709.00;;;9.35;38.99
53659;BME280;41524;35.624;139.698;2023-02-20T08:50:16;100719.00;;;9.33;40.92
53659;BME280;41524;35.624;139.698;2023-02-20T08:55:16;100721.00;;;8.88;40.63
53659;BME280;41524;35.624;139.698;2023-02-20T09:00:16;100721.00;;;9.16;44.09
53659;BME280;41524;35.624;139.698;2023-02-20T09:05:11;100728.00;;;9.14;45.46
53659;BME280;41524;35.624;139.698;2023-02-20T09:10:11;100748.00;;;8.27;47.47
53659;BME280;41524;35.624;139.698;2023-02-20T09:15:20;100755.00;;;7.99;47.62
53659;BME280;41524;35.624;139.698;2023-02-20T09:20:13;100762.00;;;8.61;44.96
53659;BME280;41524;35.624;139.698;2023-02-20T09:25:19;100773.00;;;8.56;45.00
53659;BME280;41524;35.624;139.698;2023-02-20T09:30:14;100779.00;;;9.04;43.38
53659;BME280;41524;35.624;139.698;2023-02-20T09:35:19;100775.00;;;8.12;50.01
53659;BME280;41524;35.624;139.698;2023-02-20T09:40:12;100790.00;;;8.36;44.93
53659;BME280;41524;35.624;139.698;2023-02-20T09:45:20;100788.00;;;9.88;42.12
53659;BME280;41524;35.624;139.698;2023-02-20T09:50:15;100799.00;;;8.01;48.74
53659;BME280;41524;35.624;139.698;2023-02-20T10:00:24;100816.00;;;10.57;41.38
53659;BME280;41524;35.624;139.698;2023-02-20T10:05:22;100826.00;;;9.21;37.53
53659;BME280;41524;35.624;139.698;2023-02-20T10:10:19;100829.00;;;8.78;28.75
53659;BME280;41524;35.624;139.698;2023-02-20T10:15:19;100831.00;;;8.93;27.82
53659;BME280;41524;35.624;139.698;2023-02-20T10:20:14;100845.00;;;9.65;27.25
53659;BME280;41524;35.624;139.698;2023-02-20T10:25:19;100846.00;;;9.42;27.73
53659;BME280;41524;35.624;139.698;2023-02-20T10:30:26;100847.00;;;8.99;28.41
53659;BME280;41524;35.624;139.698;2023-02-20T10:35:15;100846.00;;;9.02;28.08
53659;BME280;41524;35.624;139.698;2023-02-20T10:40:19;100853.00;;;7.88;28.71
53659;BME280;41524;35.624;139.698;2023-02-20T10:45:16;100868.00;;;8.88;29.82
53659;BME280;41524;35.624;139.698;2023-02-20T10:50:19;100879.00;;;7.63;30.39
53659;BME280;41524;35.624;139.698;2023-02-20T10:55:14;100905.00;;;7.79;29.53
53659;BME280;41524;35.624;139.698;2023-02-20T11:00:15;100909.00;;;8.27;34.68
53659;BME280;41524;35.624;139.698;2023-02-20T11:05:15;100919.00;;;8.71;41.28
53659;BME280;41524;35.624;139.698;2023-02-20T11:10:13;100938.00;;;8.77;33.97
53659;BME280;41524;35.624;139.698;2023-02-20T11:15:14;100942.00;;;8.02;28.76
53659;BME280;41524;35.624;139.698;2023-02-20T11:20:49;100954.00;;;7.69;29.25
53659;BME280;41524;35.624;139.698;2023-02-20T11:25:25;100972.00;;;7.86;27.95
53659;BME280;41524;35.624;139.698;2023-02-20T11:30:27;101000.00;;;7.90;27.04
53659;BME280;41524;35.624;139.698;2023-02-20T11:35:24;101018.00;;;7.44;26.77
53659;BME280;41524;35.624;139.698;2023-02-20T11:40:24;101023.00;;;5.95;26.97
53659;BME280;41524;35.624;139.698;2023-02-20T11:45:15;101026.00;;;7.85;26.27
53659;BME280;41524;35.624;139.698;2023-02-20T11:50:16;101037.00;;;6.46;25.92
53659;BME280;41524;35.624;139.698;2023-02-20T11:55:19;101046.00;;;6.40;26.31
53659;BME280;41524;35.624;139.698;2023-02-20T12:00:18;101066.00;;;6.50;26.75
53659;BME280;41524;35.624;139.698;2023-02-20T12:05:13;101078.00;;;6.07;25.35
53659;BME280;41524;35.624;139.698;2023-02-20T12:10:35;101096.00;;;6.29;26.19
53659;BME280;41524;35.624;139.698;2023-02-20T12:15:14;101097.00;;;6.27;26.37
53659;BME280;41524;35.624;139.698;2023-02-20T12:20:15;101091.00;;;6.58;26.14
53659;BME280;41524;35.624;139.698;2023-02-20T12:25:22;101079.00;;;5.18;26.65
53659;BME280;41524;35.624;139.698;2023-02-20T12:30:26;101096.00;;;4.31;27.94
53659;BME280;41524;35.624;139.698;2023-02-20T12:35:24;101096.00;;;4.95;27.39
53659;BME280;41524;35.624;139.698;2023-02-20T12:40:29;101108.00;;;4.25;28.20
53659;BME280;41524;35.624;139.698;2023-02-20T12:45:17;101115.00;;;5.54;27.61
53659;BME280;41524;35.624;139.698;2023-02-20T12:50:42;101142.00;;;5.74;27.86
53659;BME280;41524;35.624;139.698;2023-02-20T12:55:21;101156.00;;;5.92;26.78
53659;BME280;41524;35.624;139.698;2023-02-20T13:00:24;101174.00;;;4.61;27.65
53659;BME280;41524;35.624;139.698;2023-02-20T13:05:12;101157.00;;;4.31;28.30
53659;BME280;41524;35.624;139.698;2023-02-20T13:10:23;101157.00;;;5.08;27.51
53659;BME280;41524;35.624;139.698;2023-02-20T13:15:29;101162.00;;;4.33;28.34
53659;BME280;41524;35.624;139.698;2023-02-20T13:20:19;101177.00;;;3.93;29.48
53659;BME280;41524;35.624;139.698;2023-02-20T13:25:49;101171.00;;;4.40;29.12
53659;BME280;41524;35.624;139.698;2023-02-20T13:30:20;101166.00;;;3.87;29.32
53659;BME280;41524;35.624;139.698;2023-02-20T13:35:54;101175.00;;;4.80;28.60
53659;BME280;41524;35.624;139.698;2023-02-20T13:41:05;101183.00;;;4.12;29.10
53659;BME280;41524;35.624;139.698;2023-02-20T13:45:49;101195.00;;;5.29;28.45
53659;BME280;41524;35.624;139.698;2023-02-20T13:50:44;101200.00;;;4.71;28.65
53659;BME280;41524;35.624;139.698;2023-02-20T13:55:19;101206.00;;;4.60;29.23
53659;BME280;41524;35.624;139.698;2023-02-20T14:00:23;101216.00;;;5.12;28.95
53659;BME280;41524;35.624;139.698;2023-02-20T14:05:20;101223.00;;;5.07;28.69
53659;BME280;41524;35.624;139.698;2023-02-20T14:10:24;101232.00;;;4.10;30.11
53659;BME280;41524;35.624;139.698;2023-02-20T14:15:26;101230.00;;;3.68;29.86
53659;BME280;41524;35.624;139.698;2023-02-20T14:20:21;101240.00;;;3.88;28.64
53659;BME280;41524;35.624;139.698;2023-02-20T14:25:24;101247.00;;;4.30;28.27
53659;BME280;41524;35.624;139.698;2023-02-20T14:30:14;101252.00;;;3.95;28.63
53659;BME280;41524;35.624;139.698;2023-02-20T14:35:35;101248.00;;;4.30;28.19
53659;BME280;41524;35.624;139.698;2023-02-20T14:40:23;101258.00;;;3.90;28.89
53659;BME280;41524;35.624;139.698;2023-02-20T14:45:18;101271.00;;;4.49;27.88
53659;BME280;41524;35.624;139.698;2023-02-20T14:50:22;101275.00;;;4.02;27.73
53659;BME280;41524;35.624;139.698;2023-02-20T14:55:17;101292.00;;;4.43;27.44
53659;BME280;41524;35.624;139.698;2023-02-20T15:00:32;101298.00;;;3.95;27.08
53659;BME280;41524;35.624;139.698;2023-02-20T15:05:18;101302.00;;;3.88;27.24
53659;BME280;41524;35.624;139.698;2023-02-20T15:10:35;101310.00;;;3.88;27.96
53659;BME280;41524;35.624;139.698;2023-02-20T15:15:17;101316.00;;;3.86;27.74
53659;BME280;41524;35.624;139.698;2023-02-20T15:20:33;101325.00;;;4.22;27.73
53659;BME280;41524;35.624;139.698;2023-02-20T15:25:19;101340.00;;;3.54;28.25
53659;BME280;41524;35.624;139.698;2023-02-20T15:30:17;101345.00;;;3.97;28.25
53659;BME280;41524;35.624;139.698;2023-02-20T15:35:15;101341.00;;;3.87;28.61
53659;BME280;41524;35.624;139.698;2023-02-20T15:40:20;101359.00;;;3.87;28.78
53659;BME280;41524;35.624;139.698;2023-02-20T15:45:15;101368.00;;;3.63;29.38
53659;BME280;41524;35.624;139.698;2023-02-20T15:50:11;101375.00;;;3.76;29.39
53659;BME280;41524;35.624;139.698;2023-02-20T15:55:15;101377.00;;;2.84;30.38
53659;BME280;41524;35.624;139.698;2023-02-20T16:00:18;101387.00;;;4.00;29.58
53659;BME280;41524;35.624;139.698;2023-02-20T16:05:12;101392.00;;;3.55;30.19
53659;BME280;41524;35.624;139.698;2023-02-20T16:10:14;101403.00;;;3.90;29.69
53659;BME280;41524;35.624;139.698;2023-02-20T16:15:14;101401.00;;;2.58;30.88
53659;BME280;41524;35.624;139.698;2023-02-20T16:20:15;101407.00;;;3.75;30.33
53659;BME280;41524;35.624;139.698;2023-02-20T16:25:14;101394.00;;;3.75;30.23
53659;BME280;41524;35.624;139.698;2023-02-20T16:30:18;101411.00;;;3.68;30.40
53659;BME280;41524;35.624;139.698;2023-02-20T16:35:16;101422.00;;;3.85;30.38
53659;BME280;41524;35.624;139.698;2023-02-20T16:40:11;101431.00;;;3.62;30.07
53659;BME280;41524;35.624;139.698;2023-02-20T16:45:14;101427.00;;;3.38;30.85
53659;BME280;41524;35.624;139.698;2023-02-20T16:50:14;101434.00;;;4.43;29.51
53659;BME280;41524;35.624;139.698;2023-02-20T16:55:20;101433.00;;;2.68;31.59
53659;BME280;41524;35.624;139.698;2023-02-20T17:00:18;101441.00;;;3.82;29.91
53659;BME280;41524;35.624;139.698;2023-02-20T17:05:12;101439.00;;;3.48;30.06
53659;BME280;41524;35.624;139.698;2023-02-20T17:10:10;101443.00;;;3.64;30.21
53659;BME280;41524;35.624;139.698;2023-02-20T17:15:14;101457.00;;;2.66;30.83
53659;BME280;41524;35.624;139.698;2023-02-20T17:20:13;101459.00;;;3.11;31.40
53659;BME280;41524;35.624;139.698;2023-02-20T17:25:14;101459.00;;;3.09;30.44
53659;BME280;41524;35.624;139.698;2023-02-20T17:30:12;101459.00;;;3.46;29.82
53659;BME280;41524;35.624;139.698;2023-02-20T17:35:11;101469.00;;;3.06;29.88
53659;BME280;41524;35.624;139.698;2023-02-20T17:40:17;101468.00;;;2.92;30.52
53659;BME280;41524;35.624;139.698;2023-02-20T17:45:11;101482.00;;;3.44;29.74
53659;BME280;41524;35.624;139.698;2023-02-20T17:50:11;101472.00;;;2.86;29.89
53659;BME280;41524;35.624;139.698;2023-02-20T17:55:20;101479.00;;;3.67;28.94
53659;BME280;41524;35.624;139.698;2023-02-20T18:00:12;101487.00;;;2.20;30.83
53659;BME280;41524;35.624;139.698;2023-02-20T18:05:11;101492.00;;;2.39;31.09
53659;BME280;41524;35.624;139.698;2023-02-20T18:10:11;101491.00;;;3.70;29.40
53659;BME280;41524;35.624;139.698;2023-02-20T18:15:10;101489.00;;;2.91;29.91
53659;BME280;41524;35.624;139.698;2023-02-20T18:20:12;101490.00;;;2.23;30.35
53659;BME280;41524;35.624;139.698;2023-02-20T18:25:10;101501.00;;;2.95;29.35
53659;BME280;41524;35.624;139.698;2023-02-20T18:30:12;101521.00;;;3.08;29.18
53659;BME280;41524;35.624;139.698;2023-02-20T18:35:11;101522.00;;;2.65;28.81
53659;BME280;41524;35.624;139.698;2023-02-20T18:40:11;101522.00;;;2.58;28.56
53659;BME280;41524;35.624;139.698;2023-02-20T18:45:10;101529.00;;;3.39;28.26
53659;BME280;41524;35.624;139.698;2023-02-20T18:50:10;101541.00;;;1.79;28.83
53659;BME280;41524;35.624;139.698;2023-02-20T18:55:11;101554.00;;;3.07;27.81
53659;BME280;41524;35.624;139.698;2023-02-20T19:00:17;101562.00;;;3.01;28.44
53659;BME280;41524;35.624;139.698;2023-02-20T19:05:16;101548.00;;;2.38;29.31
53659;BME280;41524;35.624;139.698;2023-02-20T19:10:12;101572.00;;;2.96;28.99
53659;BME280;41524;35.624;139.698;2023-02-20T19:15:11;101569.00;;;1.17;31.00
53659;BME280;41524;35.624;139.698;2023-02-20T19:20:18;101568.00;;;1.96;30.25
53659;BME280;41524;35.624;139.698;2023-02-20T19:25:10;101577.00;;;1.59;30.29
53659;BME280;41524;35.624;139.698;2023-02-20T19:30:12;101583.00;;;1.50;29.90
53659;BME280;41524;35.624;139.698;2023-02-20T19:35:10;101589.00;;;1.56;29.61
53659;BME280;41524;35.624;139.698;2023-02-20T19:40:11;101605.00;;;1.30;30.22
53659;BME280;41524;35.624;139.698;2023-02-20T19:45:13;101603.00;;;1.71;29.41
53659;BME280;41524;35.624;139.698;2023-02-20T19:50:13;101606.00;;;1.54;29.57
53659;BME280;41524;35.624;139.698;2023-02-20T19:55:18;101621.00;;;1.28;29.74
53659;BME280;41524;35.624;139.698;2023-02-20T20:00:13;101623.00;;;0.69;29.33
53659;BME280;41524;35.624;139.698;2023-02-20T20:05:15;101634.00;;;1.96;28.56
53659;BME280;41524;35.624;139.698;2023-02-20T20:10:16;101633.00;;;2.32;27.66
53659;BME280;41524;35.624;139.698;2023-02-20T20:15:11;101643.00;;;1.33;28.25
53659;BME280;41524;35.624;139.698;2023-02-20T20:20:11;101648.00;;;1.16;28.77
53659;BME280;41524;35.624;139.698;2023-02-20T20:25:13;101654.00;;;0.28;29.62
53659;BME280;41524;35.624;139.698;2023-02-20T20:30:15;101663.00;;;1.36;28.66
53659;BME280;41524;35.624;139.698;2023-02-20T20:35:11;101661.00;;;0.83;29.18
53659;BME280;41524;35.624;139.698;2023-02-20T20:40:12;101670.00;;;1.78;28.50
53659;BME280;41524;35.624;139.698;2023-02-20T20:45:12;101681.00;;;0.73;28.71
53659;BME280;41524;35.624;139.698;2023-02-20T20:50:20;101698.00;;;0.90;28.70
53659;BME280;41524;35.624;139.698;2023-02-20T20:55:11;101700.00;;;0.82;28.80
53659;BME280;41524;35.624;139.698;2023-02-20T21:00:23;101717.00;;;1.43;29.40
53659;BME280;41524;35.624;139.698;2023-02-20T21:05:18;101740.00;;;1.58;29.22
53659;BME280;41524;35.624;139.698;2023-02-20T21:10:14;101755.00;;;1.35;29.49
53659;BME280;41524;35.624;139.698;2023-02-20T21:15:12;101772.00;;;0.46;30.51
53659;BME280;41524;35.624;139.698;2023-02-20T21:20:15;101788.00;;;1.19;30.03
53659;BME280;41524;35.624;139.698;2023-02-20T21:25:12;101797.00;;;0.57;30.75
53659;BME280;41524;35.624;139.698;2023-02-20T21:30:12;101823.00;;;1.47;30.31
53659;BME280;41524;35.624;139.698;2023-02-20T21:35:13;101837.00;;;0.84;31.25
53659;BME280;41524;35.624;139.698;2023-02-20T21:40:11;101854.00;;;1.12;31.39
53659;BME280;41524;35.624;139.698;2023-02-20T21:45:11;101873.00;;;1.93;30.75
53659;BME280;41524;35.624;139.698;2023-02-20T21:50:19;101882.00;;;1.09;31.62
53659;BME280;41524;35.624;139.698;2023-02-20T21:55:13;101898.00;;;1.20;31.26
53659;BME280;41524;35.624;139.698;2023-02-20T22:00:16;101912.00;;;1.62;31.67
53659;BME280;41524;35.624;139.698;2023-02-20T22:05:16;101937.00;;;1.70;32.59
53659;BME280;41524;35.624;139.698;2023-02-20T22:10:18;101949.00;;;2.51;31.74
53659;BME280;41524;35.624;139.698;2023-02-20T22:15:17;101960.00;;;2.10;34.85
53659;BME280;41524;35.624;139.698;2023-02-20T22:20:15;101978.00;;;2.30;33.59
53659;BME280;41524;35.624;139.698;2023-02-20T22:25:17;101982.00;;;2.22;34.80
53659;BME280;41524;35.624;139.698;2023-02-20T22:30:16;101996.00;;;2.24;33.32
53659;BME280;41524;35.624;139.698;2023-02-20T22:35:17;102009.00;;;2.06;34.99
53659;BME280;41524;35.624;139.698;2023-02-20T22:40:12;102015.00;;;2.47;33.53
53659;BME280;41524;35.624;139.698;2023-02-20T22:45:11;102010.00;;;2.90;32.80
53659;BME280;41524;35.624;139.698;2023-02-20T22:50:17;102018.00;;;3.17;31.32
53659;BME280;41524;35.624;139.698;2023-02-20T22:55:17;102027.00;;;3.27;30.37
53659;BME280;41524;35.624;139.698;2023-02-20T23:00:15;102024.00;;;2.97;30.77
53659;BME280;41524;35.624;139.698;2023-02-20T23:05:10;102035.00;;;3.27;30.64
53659;BME280;41524;35.624;139.698;2023-02-20T23:10:11;102037.00;;;3.70;31.37
53659;BME280;41524;35.624;139.698;2023-02-20T23:15:14;102041.00;;;3.97;29.04
53659;BME280;41524;35.624;139.698;2023-02-20T23:20:22;102050.00;;;3.48;29.47
53659;BME280;41524;35.624;139.698;2023-02-20T23:25:15;102045.00;;;4.91;27.77
53659;BME280;41524;35.624;139.698;2023-02-20T23:30:15;102057.00;;;5.31;26.28
53659;BME280;41524;35.624;139.698;2023-02-20T23:35:11;102055.00;;;5.83;28.12
53659;BME280;41524;35.624;139.698;2023-02-20T23:40:11;102061.00;;;4.81;26.08
53659;BME280;41524;35.624;139.698;2023-02-20T23:45:11;102058.00;;;5.47;26.01
53659;BME280;41524;35.624;139.698;2023-02-20T23:50:10;102066.00;;;5.51;25.39
53659;BME280;41524;35.624;139.698;2023-02-20T23:55:16;102060.00;;;5.23;24.42
